Time;durP1;ratioP1;P1;durP2;ratioP2;P2;SDS_P1;SDS_P2;PMS_P1;PMS_P2;Temp;Humidity;BMP_temperature;BMP_pressure;BME280_temperature;BME280_humidity;BME280_pressure;Samples;Min_cycle;Max_cycle;Signal;HPM_P1;HPM_P2
2022/07/16 00:02:27;;;;;;;7.55;2.90;;;;;;;16.02;64.17;101941.47;4698755;30;20501;-71
2022/07/16 00:04:53;;;;;;;6.40;2.50;;;;;;;16.02;64.46;101936.88;4700979;30;20037;-74
2022/07/16 00:07:19;;;;;;;7.70;2.70;;;;;;;16.00;64.13;101938.97;4701007;30;20033;-74
2022/07/16 00:09:44;;;;;;;6.15;2.42;;;;;;;16.01;64.41;101927.00;4707364;30;20398;-73
2022/07/16 00:12:10;;;;;;;5.80;2.80;;;;;;;16.07;64.10;101933.44;4718623;30;20033;-74
2022/07/16 00:14:35;;;;;;;9.55;2.85;;;;;;;16.10;64.21;101932.94;4718325;30;20040;-73
2022/07/16 00:17:00;;;;;;;4.72;2.40;;;;;;;16.13;63.56;101941.50;4718739;30;20032;-73
2022/07/16 00:19:25;;;;;;;7.13;2.58;;;;;;;16.11;63.65;101940.09;4716049;30;20037;-72
2022/07/16 00:21:53;;;;;;;6.80;2.70;;;;;;;16.07;63.29;101944.34;4717864;30;20063;-74
2022/07/16 00:24:19;;;;;;;4.03;2.38;;;;;;;16.06;63.54;101940.78;4717645;30;20087;-73
2022/07/16 00:26:46;;;;;;;7.18;2.78;;;;;;;16.00;63.76;101944.44;4717922;30;20041;-73
2022/07/16 00:29:11;;;;;;;6.07;2.60;;;;;;;15.99;63.93;101953.72;4717324;30;20120;-72
2022/07/16 00:31:37;;;;;;;4.78;2.63;;;;;;;15.94;63.49;101951.69;4718263;30;20143;-72
2022/07/16 00:34:09;;;;;;;8.27;2.88;;;;;;;15.93;63.95;101954.66;4718239;30;20470;-73
2022/07/16 00:36:36;;;;;;;5.38;2.65;;;;;;;15.93;64.07;101954.66;4717583;30;20048;-74
2022/07/16 00:39:02;;;;;;;7.00;3.10;;;;;;;15.93;64.44;101949.19;4716104;30;20040;-74
2022/07/16 00:41:28;;;;;;;4.18;2.83;;;;;;;15.93;64.15;101954.66;4701351;30;20540;-72
2022/07/16 00:43:59;;;;;;;7.38;2.88;;;;;;;15.90;64.17;101953.22;4718061;30;20153;-72
2022/07/16 00:46:24;;;;;;;9.40;3.30;;;;;;;15.89;64.45;101954.28;4717409;30;20037;-74
2022/07/16 00:48:49;;;;;;;5.18;2.78;;;;;;;15.86;64.18;101951.19;4717151;30;20035;-74
2022/07/16 00:51:15;;;;;;;6.50;2.83;;;;;;;15.86;64.35;101943.81;4701993;30;20087;-72
2022/07/16 00:53:41;;;;;;;6.07;3.40;;;;;;;15.86;64.77;101943.81;4717883;30;20033;-73
2022/07/16 00:56:09;;;;;;;4.05;2.78;;;;;;;15.85;65.00;101947.63;4717869;30;20044;-72
2022/07/16 00:58:36;;;;;;;7.40;3.17;;;;;;;15.82;65.23;101941.78;4715527;30;20371;-74
2022/07/16 01:01:02;;;;;;;4.95;2.83;;;;;;;15.86;65.25;101952.00;4715883;30;20194;-73
2022/07/16 01:03:28;;;;;;;5.97;2.78;;;;;;;15.90;65.15;101942.28;4717575;30;20127;-73
2022/07/16 01:05:53;;;;;;;6.80;3.30;;;;;;;15.90;64.75;101938.75;4717625;30;20108;-72
2022/07/16 01:08:19;;;;;;;5.95;3.15;;;;;;;15.96;64.98;101948.72;4716846;30;20121;-73
2022/07/16 01:10:45;;;;;;;6.38;3.17;;;;;;;15.97;64.45;101944.91;4717928;30;20091;-72
2022/07/16 01:13:11;;;;;;;9.20;3.10;;;;;;;15.97;64.68;101938.63;4717514;30;20095;-73
2022/07/16 01:15:36;;;;;;;7.20;3.45;;;;;;;15.93;65.34;101939.09;4717285;30;20033;-72
2022/07/16 01:18:01;;;;;;;6.07;3.10;;;;;;;15.92;65.15;101928.41;4715979;30;20051;-72
2022/07/16 01:20:29;;;;;;;5.57;3.00;;;;;;;15.97;65.33;101933.97;4701491;30;20044;-72
2022/07/16 01:22:55;;;;;;;6.60;2.90;;;;;;;16.00;65.98;101922.59;4717399;30;20098;-73
2022/07/16 01:25:21;;;;;;;10.70;3.50;;;;;;;16.04;64.73;101925.69;4716813;30;20049;-72
2022/07/16 01:27:46;;;;;;;6.40;2.90;;;;;;;16.05;64.81;101924.66;4717663;30;20186;-72
2022/07/16 01:30:11;;;;;;;4.13;2.70;;;;;;;16.06;64.53;101927.16;4716311;30;20114;-73
2022/07/16 01:32:38;;;;;;;8.25;2.85;;;;;;;16.09;64.48;101934.00;4717058;30;20033;-72
2022/07/16 01:35:04;;;;;;;4.47;2.58;;;;;;;16.07;64.46;101938.88;4717255;30;20044;-73
2022/07/16 01:37:30;;;;;;;12.57;3.30;;;;;;;16.06;64.63;101937.22;4716725;30;20048;-73
2022/07/16 01:39:56;;;;;;;6.18;3.03;;;;;;;16.04;64.17;101937.44;4715246;30;20029;-74
2022/07/16 01:42:21;;;;;;;4.63;2.67;;;;;;;16.05;64.48;101941.03;4716618;30;20582;-71
2022/07/16 01:44:47;;;;;;;5.97;3.00;;;;;;;16.02;64.41;101939.59;4701325;30;20120;-71
2022/07/16 01:47:13;;;;;;;6.90;3.10;;;;;;;15.99;64.20;101940.06;4717111;30;20036;-72
2022/07/16 01:49:39;;;;;;;6.90;3.08;;;;;;;15.94;64.13;101945.38;4699865;30;20037;-72
2022/07/16 01:52:14;;;;;;;5.50;3.10;;;;;;;15.94;64.78;101945.38;4700863;30;20048;-74
2022/07/16 01:54:42;;;;;;;8.07;3.33;;;;;;;15.92;64.59;101947.53;4715488;30;20494;-73
2022/07/16 01:57:08;;;;;;;8.30;2.70;;;;;;;15.88;64.59;101940.84;4715239;30;20040;-73
2022/07/16 01:59:33;;;;;;;5.60;3.00;;;;;;;15.87;64.11;101944.66;4716668;30;20070;-72
2022/07/16 02:01:58;;;;;;;7.20;3.20;;;;;;;15.86;64.24;101938.34;4712316;30;20044;-73
2022/07/16 02:04:23;;;;;;;7.80;3.10;;;;;;;15.83;64.22;101932.56;4716164;30;20037;-73
2022/07/16 02:06:49;;;;;;;7.07;3.00;;;;;;;15.87;64.61;101936.47;4716532;30;20035;-74
2022/07/16 02:09:14;;;;;;;7.65;3.63;;;;;;;15.85;64.16;101927.69;4716891;30;20458;-72
2022/07/16 02:11:39;;;;;;;7.50;3.42;;;;;;;15.82;64.30;101926.28;4716156;30;20033;-73
2022/07/16 02:14:04;;;;;;;4.82;3.20;;;;;;;15.81;64.40;101926.50;4715637;30;20544;-74
2022/07/16 02:16:30;;;;;;;9.82;3.65;;;;;;;15.82;65.10;101925.41;4716621;30;20033;-73
2022/07/16 02:18:56;;;;;;;6.30;3.20;;;;;;;15.84;64.88;101926.84;4716849;30;20029;-74
2022/07/16 02:21:21;;;;;;;8.82;3.55;;;;;;;15.83;64.86;101925.19;4714527;30;20036;-72
2022/07/16 02:23:46;;;;;;;7.78;3.60;;;;;;;15.82;64.87;101920.81;4716125;30;20041;-74
2022/07/16 02:26:12;;;;;;;9.43;3.15;;;;;;;15.83;64.67;101927.09;4716740;30;20060;-74
2022/07/16 02:28:37;;;;;;;8.15;4.25;;;;;;;15.82;65.25;101925.41;4716276;30;20066;-72
2022/07/16 02:31:02;;;;;;;6.35;3.67;;;;;;;15.80;65.32;101928.38;4715023;30;20467;-73
2022/07/16 02:33:28;;;;;;;6.05;3.45;;;;;;;15.81;65.18;101916.41;4716276;30;20033;-72
2022/07/16 02:35:53;;;;;;;8.77;3.60;;;;;;;15.80;65.09;101917.47;4716972;30;20035;-73
2022/07/16 02:38:18;;;;;;;10.77;4.13;;;;;;;15.80;64.81;101928.38;4716780;30;20099;-73
2022/07/16 02:40:43;;;;;;;8.32;3.55;;;;;;;15.80;64.89;101924.81;4715873;30;20474;-74
2022/07/16 02:43:10;;;;;;;8.05;3.80;;;;;;;15.78;65.62;101916.88;4713896;30;20441;-72
2022/07/16 02:45:38;;;;;;;7.68;4.03;;;;;;;15.79;65.50;101923.16;4716351;30;20033;-73
2022/07/16 02:48:05;;;;;;;12.05;4.30;;;;;;;15.78;65.32;101916.88;4717231;30;20044;-73
2022/07/16 02:50:30;;;;;;;6.90;3.80;;;;;;;15.79;65.26;101914.97;4718955;30;20064;-72
2022/07/16 02:52:56;;;;;;;7.80;3.90;;;;;;;15.80;65.48;101916.63;4719870;30;20037;-73
2022/07/16 02:55:21;;;;;;;7.70;3.90;;;;;;;15.80;65.13;101922.09;4719612;30;20493;-72
2022/07/16 02:57:47;;;;;;;7.18;3.90;;;;;;;15.76;64.83;101916.22;4704162;30;20049;-74
2022/07/16 03:00:14;;;;;;;6.57;4.00;;;;;;;15.80;65.40;101916.63;4718841;30;20049;-73
2022/07/16 03:02:40;;;;;;;9.07;4.30;;;;;;;15.80;65.34;101919.38;4716002;30;20047;-74
2022/07/16 03:05:07;;;;;;;8.98;4.07;;;;;;;15.74;65.29;101923.81;4719431;30;20041;-73
2022/07/16 03:07:32;;;;;;;7.47;4.28;;;;;;;15.75;65.12;101929.06;4719515;30;20479;-73
2022/07/16 03:09:57;;;;;;;9.23;4.28;;;;;;;15.72;65.41;101921.34;4719523;30;20120;-72
2022/07/16 03:12:23;;;;;;;8.00;4.05;;;;;;;15.71;65.71;101927.84;4717851;30;20027;-74
2022/07/16 03:14:48;;;;;;;9.20;4.55;;;;;;;15.69;65.63;101926.44;4719244;30;20127;-73
2022/07/16 03:17:14;;;;;;;9.77;4.53;;;;;;;15.67;65.42;101929.41;4719205;30;20033;-74
2022/07/16 03:19:40;;;;;;;9.00;4.25;;;;;;;15.68;65.44;101941.97;4716465;30;20068;-74
2022/07/16 03:22:05;;;;;;;11.93;4.90;;;;;;;15.70;65.70;101933.53;4719019;30;20067;-71
2022/07/16 03:24:31;;;;;;;6.97;4.28;;;;;;;15.71;65.70;101932.47;4718897;30;20454;-74
2022/07/16 03:26:57;;;;;;;7.25;4.20;;;;;;;15.66;65.81;101930.44;4719252;30;20037;-73
2022/07/16 03:29:22;;;;;;;9.27;4.40;;;;;;;15.66;65.41;101933.19;4719025;30;20454;-74
2022/07/16 03:31:47;;;;;;;9.48;4.70;;;;;;;15.64;65.47;101935.31;4717599;30;20112;-72
2022/07/16 03:34:13;;;;;;;7.90;4.30;;;;;;;15.69;65.76;101926.44;4718967;30;20036;-73
2022/07/16 03:36:38;;;;;;;9.73;4.50;;;;;;;15.67;66.04;101940.31;4718845;30;20417;-71
2022/07/16 03:39:06;;;;;;;9.38;4.75;;;;;;;15.66;65.74;101946.81;4719152;30;20490;-73
2022/07/16 03:41:34;;;;;;;7.22;4.50;;;;;;;15.65;65.93;101947.88;4717052;30;20033;-72
2022/07/16 03:44:00;;;;;;;10.45;4.35;;;;;;;15.68;65.98;101941.13;4719232;30;20036;-73
2022/07/16 03:46:26;;;;;;;8.07;4.40;;;;;;;15.66;66.42;101946.81;4717519;30;20054;-73
2022/07/16 03:48:51;;;;;;;8.82;4.80;;;;;;;15.68;66.40;101941.97;4719034;30;20535;-73
2022/07/16 03:51:17;;;;;;;6.72;4.60;;;;;;;15.69;66.46;101951.81;4718244;30;20041;-74
2022/07/16 03:53:42;;;;;;;7.45;4.65;;;;;;;15.68;66.73;101950.16;4718646;30;20032;-74
2022/07/16 03:56:08;;;;;;;11.90;4.78;;;;;;;15.72;66.90;101954.06;4719108;30;20047;-73
2022/07/16 03:58:34;;;;;;;8.43;4.35;;;;;;;15.73;67.38;101955.75;4702598;30;20142;-72
2022/07/16 04:00:59;;;;;;;10.50;5.30;;;;;;;15.74;67.22;101957.41;4715580;30;20037;-73
2022/07/16 04:03:24;;;;;;;10.60;4.65;;;;;;;15.75;67.50;101959.06;4717473;30;20065;-74
2022/07/16 04:05:50;;;;;;;10.40;5.00;;;;;;;15.80;67.91;101965.78;4718771;30;20033;-73
2022/07/16 04:08:16;;;;;;;11.25;5.00;;;;;;;15.75;68.13;101969.16;4718651;30;20037;-73
2022/07/16 04:10:41;;;;;;;15.45;4.97;;;;;;;15.75;68.23;101969.16;4701914;30;20094;-72
2022/07/16 04:13:06;;;;;;;7.35;4.80;;;;;;;15.75;68.84;101967.25;4702899;30;20065;-71
2022/07/16 04:15:32;;;;;;;8.52;5.05;;;;;;;15.85;69.12;101974.94;4718099;30;20032;-73
2022/07/16 04:17:57;;;;;;;7.90;4.95;;;;;;;15.89;69.17;101975.28;4718468;30;20068;-73
2022/07/16 04:20:22;;;;;;;7.15;4.95;;;;;;;15.90;69.42;101974.22;4718525;30;20107;-72
2022/07/16 04:22:48;;;;;;;7.18;4.90;;;;;;;15.90;69.43;101980.50;4717392;30;20060;-72
2022/07/16 04:25:13;;;;;;;9.65;5.43;;;;;;;15.89;69.72;101975.28;4717412;30;20072;-71
2022/07/16 04:27:39;;;;;;;11.15;5.40;;;;;;;15.87;70.45;101980.97;4717239;30;20048;-74
2022/07/16 04:30:09;;;;;;;9.40;5.47;;;;;;;15.85;70.35;101977.66;4718273;30;20033;-72
2022/07/16 04:32:35;;;;;;;13.27;6.28;;;;;;;15.83;70.74;101981.69;4716451;30;20566;-73
2022/07/16 04:35:01;;;;;;;10.23;5.60;;;;;;;15.86;70.96;101986.66;4717417;30;20025;-73
2022/07/16 04:37:26;;;;;;;9.88;5.22;;;;;;;15.84;71.76;101983.34;4717856;30;20474;-74
2022/07/16 04:39:52;;;;;;;12.93;5.53;;;;;;;15.77;72.30;101981.53;4717873;30;20476;-72
2022/07/16 04:42:18;;;;;;;11.13;5.72;;;;;;;15.79;72.51;101985.94;4698933;30;20068;-72
2022/07/16 04:44:43;;;;;;;10.68;5.72;;;;;;;15.76;73.54;101987.19;4699000;30;20541;-74
2022/07/16 04:47:09;;;;;;;11.25;5.85;;;;;;;15.76;74.19;101982.56;4713915;30;20041;-72
2022/07/16 04:49:34;;;;;;;10.90;5.60;;;;;;;15.79;75.37;101985.94;4717752;30;20474;-70
2022/07/16 04:52:02;;;;;;;11.25;5.55;;;;;;;15.83;77.58;101992.59;4716856;30;20036;-73
2022/07/16 04:54:28;;;;;;;18.65;6.60;;;;;;;15.87;78.59;101993.81;4701354;30;20037;-71
2022/07/16 04:56:53;;;;;;;15.48;5.78;;;;;;;15.88;80.62;101995.44;4717912;30;20032;-70
2022/07/16 04:59:19;;;;;;;14.75;5.43;;;;;;;15.95;81.88;101997.00;4716736;30;20116;-70
2022/07/16 05:01:44;;;;;;;10.43;5.45;;;;;;;16.00;83.53;101995.47;4710689;30;20036;-69
2022/07/16 05:04:09;;;;;;;12.93;5.82;;;;;;;16.05;85.30;102004.66;4701441;30;20025;-71
2022/07/16 05:06:34;;;;;;;10.82;5.35;;;;;;;16.10;86.37;101999.31;4716440;30;20449;-71
2022/07/16 05:09:01;;;;;;;11.45;5.20;;;;;;;16.16;88.71;102005.75;4717190;30;20037;-71
2022/07/16 05:11:27;;;;;;;9.82;5.15;;;;;;;16.22;90.48;102010.25;4713993;30;20048;-70
2022/07/16 05:13:53;;;;;;;7.07;4.38;;;;;;;16.26;91.75;102006.00;4716666;30;20037;-70
2022/07/16 05:16:19;;;;;;;8.32;4.55;;;;;;;16.30;93.43;102006.34;4716806;30;20481;-69
2022/07/16 05:18:44;;;;;;;8.38;4.65;;;;;;;16.38;94.63;102013.38;4716413;30;20098;-70
2022/07/16 05:21:09;;;;;;;11.38;4.28;;;;;;;16.44;95.07;102012.41;4714065;30;20040;-70
2022/07/16 05:23:35;;;;;;;8.98;4.20;;;;;;;16.48;96.14;102010.88;4716552;30;20052;-69
2022/07/16 05:26:00;;;;;;;9.27;4.55;;;;;;;16.48;98.97;102010.88;4716713;30;20040;-70
2022/07/16 05:28:25;;;;;;;9.80;4.18;;;;;;;16.52;99.79;102019.47;4701013;30;20040;-71
2022/07/16 05:30:51;;;;;;;10.35;4.57;;;;;;;16.54;98.65;102020.88;4696155;30;20053;-69
2022/07/16 05:33:17;;;;;;;7.85;3.97;;;;;;;16.58;100.00;102023.97;4698074;30;20126;-70
2022/07/16 05:35:42;;;;;;;10.25;4.65;;;;;;;16.64;99.60;102029.31;4698703;30;20033;-71
2022/07/16 05:38:08;;;;;;;9.20;4.28;;;;;;;16.80;98.13;102024.19;4699350;30;20038;-71
2022/07/16 05:40:33;;;;;;;10.80;4.32;;;;;;;16.76;100.00;102029.31;4704630;30;20112;-70
2022/07/16 05:42:58;;;;;;;6.22;4.10;;;;;;;16.83;100.00;102027.31;4715424;30;20470;-69
2022/07/16 05:45:24;;;;;;;9.05;3.88;;;;;;;16.92;100.00;102033.25;4700720;30;20033;-70
2022/07/16 05:47:49;;;;;;;10.38;3.78;;;;;;;16.94;100.00;102020.19;4716270;30;20434;-70
2022/07/16 05:50:14;;;;;;;11.13;3.60;;;;;;;16.99;100.00;102031.22;4714829;30;20029;-70
2022/07/16 05:52:40;;;;;;;7.53;3.33;;;;;;;17.06;100.00;102038.47;4716537;30;20033;-71
2022/07/16 05:55:05;;;;;;;8.98;3.45;;;;;;;17.15;100.00;102037.88;4716411;30;20035;-71
2022/07/16 05:57:31;;;;;;;5.60;2.80;;;;;;;17.22;100.00;102031.44;4716356;30;20462;-71
2022/07/16 05:59:56;;;;;;;8.35;3.28;;;;;;;17.21;100.00;102036.09;4679232;30;1056105;-69
2022/07/16 06:02:21;;;;;;;6.45;3.30;;;;;;;17.20;100.00;102039.06;4713860;30;20116;-71
2022/07/16 06:04:47;;;;;;;5.70;3.13;;;;;;;17.26;100.00;102044.41;4716723;30;20120;-70
2022/07/16 06:07:12;;;;;;;10.57;2.80;;;;;;;17.34;99.33;102045.94;4701144;30;20061;-70
2022/07/16 06:09:37;;;;;;;7.72;2.90;;;;;;;17.36;94.85;102050.09;4700923;30;20039;-70
2022/07/16 06:12:03;;;;;;;3.83;1.95;;;;;;;17.38;92.25;102057.22;4715368;30;20124;-71
2022/07/16 06:14:28;;;;;;;6.85;2.40;;;;;;;17.36;89.26;102065.66;4715543;30;20447;-70
2022/07/16 06:16:54;;;;;;;6.70;2.83;;;;;;;17.44;85.73;102057.09;4700926;30;20037;-71
2022/07/16 06:19:19;;;;;;;6.15;2.28;;;;;;;17.44;85.10;102068.03;4716009;30;20454;-70
2022/07/16 06:21:45;;;;;;;5.85;1.60;;;;;;;17.54;80.62;102068.25;4715895;30;20048;-74
2022/07/16 06:24:19;;;;;;;4.88;1.80;;;;;;;17.53;79.96;102066.59;4703125;30;20029;-77
2022/07/16 06:26:48;;;;;;;6.90;2.00;;;;;;;17.57;79.38;102066.09;4717377;30;20037;-71
2022/07/16 06:29:17;;;;;;;4.63;1.75;;;;;;;17.61;78.09;102080.97;4700952;30;20479;-71
2022/07/16 06:31:44;;;;;;;4.95;1.90;;;;;;;17.61;79.30;102083.72;4718869;30;20525;-71
2022/07/16 06:34:10;;;;;;;4.45;1.73;;;;;;;17.66;78.72;102081.06;4718481;30;20029;-70
2022/07/16 06:36:37;;;;;;;4.25;1.60;;;;;;;17.67;77.49;102090.94;4718757;30;20436;-70
2022/07/16 06:39:10;;;;;;;3.88;1.73;;;;;;;17.61;77.84;102087.28;4718219;30;20489;-69
2022/07/16 06:41:37;;;;;;;5.43;1.98;;;;;;;17.65;78.74;102080.25;4716627;30;20037;-71
2022/07/16 06:44:04;;;;;;;5.30;2.20;;;;;;;17.70;77.99;102087.72;4718449;30;20029;-71
2022/07/16 06:46:30;;;;;;;5.82;1.88;;;;;;;17.74;77.74;102090.78;4718498;30;20048;-71
2022/07/16 06:48:55;;;;;;;4.53;1.85;;;;;;;17.77;76.73;102093.91;4703871;30;20029;-71
2022/07/16 06:51:20;;;;;;;5.63;1.90;;;;;;;17.80;77.03;102098.03;4718491;30;20458;-71
2022/07/16 06:53:46;;;;;;;4.97;1.80;;;;;;;17.87;77.17;102099.59;4718303;30;20047;-71
2022/07/16 06:56:11;;;;;;;3.58;1.85;;;;;;;17.84;73.80;102099.22;4719528;30;20021;-71
2022/07/16 06:58:39;;;;;;;3.63;1.50;;;;;;;17.82;73.27;102104.13;4724311;30;20037;-70
2022/07/16 07:01:08;;;;;;;5.18;1.70;;;;;;;17.79;73.75;102113.66;4727226;30;20045;-71
2022/07/16 07:03:38;;;;;;;3.27;1.77;;;;;;;17.79;72.44;102113.66;4715214;30;20091;-72
2022/07/16 07:06:03;;;;;;;3.63;1.40;;;;;;;17.79;72.89;102118.28;4719051;30;20044;-73
2022/07/16 07:08:29;;;;;;;2.88;1.48;;;;;;;17.77;71.63;102109.47;4703705;30;20056;-73
2022/07/16 07:10:54;;;;;;;2.42;1.75;;;;;;;17.79;71.77;102113.66;4702731;30;20083;-72
2022/07/16 07:13:19;;;;;;;4.05;1.80;;;;;;;17.86;71.42;102121.69;4703639;30;20025;-75
2022/07/16 07:15:45;;;;;;;4.68;1.42;;;;;;;17.98;71.80;102127.19;4719360;30;20037;-73
2022/07/16 07:18:10;;;;;;;6.35;1.52;;;;;;;18.02;69.23;102128.38;4719247;30;20459;-75
2022/07/16 07:24:06;;;;;;;3.22;1.35;;;;;;;18.12;63.52;102134.03;4711455;30;20135;-73
2022/07/16 07:26:31;;;;;;;4.32;1.80;;;;;;;18.17;63.12;102136.88;4719085;30;20563;-72
2022/07/16 07:28:57;;;;;;;4.53;1.30;;;;;;;18.24;63.46;102143.03;4718774;30;20029;-74
2022/07/16 07:31:22;;;;;;;2.65;1.30;;;;;;;18.17;62.59;102142.34;4703418;30;20096;-71
2022/07/16 07:33:47;;;;;;;3.47;1.25;;;;;;;18.21;62.07;102143.53;4717996;30;20029;-74
2022/07/16 07:36:13;;;;;;;4.68;1.05;;;;;;;18.20;61.19;102147.34;4704824;30;20072;-77
2022/07/16 07:38:38;;;;;;;5.47;1.67;;;;;;;18.29;62.28;102149.69;4700186;30;20025;-72
2022/07/16 07:41:04;;;;;;;2.97;1.10;;;;;;;18.32;61.56;102155.50;4700508;30;20037;-76
2022/07/16 07:43:29;;;;;;;4.03;1.20;;;;;;;18.35;60.77;102156.94;4709359;30;20120;-72
2022/07/16 07:45:54;;;;;;;5.30;1.45;;;;;;;18.36;60.73;102155.88;4717267;30;20045;-74
2022/07/16 07:48:19;;;;;;;3.60;1.30;;;;;;;18.29;61.44;102157.91;4703179;30;20458;-71
2022/07/16 07:50:45;;;;;;;3.80;1.50;;;;;;;18.29;60.86;102156.00;4718476;30;20041;-74
2022/07/16 07:53:10;;;;;;;4.68;1.40;;;;;;;18.28;59.82;102159.00;4717971;30;20547;-74
2022/07/16 07:55:37;;;;;;;4.03;1.40;;;;;;;18.28;60.90;102157.06;4718798;30;20029;-69
2022/07/16 07:58:03;;;;;;;4.68;1.35;;;;;;;18.37;61.30;102158.38;4717066;30;20049;-74
2022/07/16 08:00:28;;;;;;;5.60;1.30;;;;;;;18.45;61.40;102168.09;4699827;30;20056;-73
2022/07/16 08:02:54;;;;;;;4.45;1.35;;;;;;;18.45;61.83;102162.63;4715943;30;20033;-71
2022/07/16 08:05:20;;;;;;;2.88;1.50;;;;;;;18.47;61.02;102163.19;4718903;30;20037;-71
2022/07/16 08:07:45;;;;;;;4.50;1.40;;;;;;;18.56;60.68;102167.19;4718414;30;20033;-69
2022/07/16 08:10:11;;;;;;;2.63;1.60;;;;;;;18.58;60.73;102177.91;4717892;30;20044;-70
2022/07/16 08:12:38;;;;;;;3.78;1.20;;;;;;;18.59;61.23;102177.66;4702882;30;20052;-69
2022/07/16 08:15:04;;;;;;;6.40;1.55;;;;;;;18.63;61.84;102180.75;4718114;30;20087;-70
2022/07/16 08:17:29;;;;;;;6.95;1.42;;;;;;;18.65;61.60;102180.50;4718519;30;20067;-70
2022/07/16 08:19:54;;;;;;;4.75;1.48;;;;;;;18.67;61.97;102186.56;4717138;30;20069;-70
2022/07/16 08:22:20;;;;;;;2.95;1.40;;;;;;;18.71;60.47;102183.09;4717000;30;20028;-72
2022/07/16 08:27:29;;;;;;;5.85;1.60;;;;;;;18.80;59.46;102202.72;4718459;30;20059;-70
2022/07/16 08:29:54;;;;;;;4.03;1.30;;;;;;;18.82;58.41;102195.06;4717050;30;20640;-72
2022/07/16 08:32:19;;;;;;;2.22;1.05;;;;;;;18.82;58.78;102194.22;4718073;30;20029;-69
2022/07/16 08:34:45;;;;;;;5.00;1.35;;;;;;;18.80;58.07;102205.44;4717999;30;20055;-69
2022/07/16 08:37:11;;;;;;;3.20;1.20;;;;;;;18.72;57.85;102200.34;4718368;30;20082;-72
2022/07/16 08:39:44;;;;;;;2.65;1.17;;;;;;;18.78;58.64;102213.06;4717103;30;20040;-71
2022/07/16 08:42:11;;;;;;;4.22;1.20;;;;;;;18.81;58.43;102212.59;4716651;30;20119;-71
2022/07/16 08:44:41;;;;;;;2.83;1.33;;;;;;;18.91;57.38;102210.06;4701367;30;20029;-77
2022/07/16 08:47:10;;;;;;;6.32;1.08;;;;;;;18.94;56.64;102211.47;4716849;30;20422;-72
2022/07/16 08:49:38;;;;;;;4.18;1.20;;;;;;;18.95;56.94;102207.66;4717202;30;20045;-72
2022/07/16 08:52:06;;;;;;;4.30;1.58;;;;;;;19.03;57.11;102218.22;4717729;30;20060;-71
2022/07/16 08:54:33;;;;;;;3.85;1.35;;;;;;;19.13;57.52;102225.78;4716584;30;20064;-71
2022/07/16 08:56:59;;;;;;;6.63;1.73;;;;;;;19.28;56.59;102216.97;4716380;30;20039;-71
2022/07/16 08:59:27;;;;;;;3.13;1.25;;;;;;;19.36;56.14;102232.19;4716679;30;20123;-71
2022/07/16 09:01:52;;;;;;;3.10;1.33;;;;;;;19.33;55.90;102228.03;4698637;30;20067;-70
2022/07/16 09:04:18;;;;;;;4.43;1.42;;;;;;;19.32;56.17;102225.53;4717460;30;20048;-70
2022/07/16 09:06:43;;;;;;;3.90;1.25;;;;;;;19.35;54.43;102233.25;4701725;30;20052;-72
2022/07/16 09:09:09;;;;;;;8.18;1.73;;;;;;;19.38;55.42;102232.75;4717610;30;20044;-71
2022/07/16 09:11:35;;;;;;;3.42;1.50;;;;;;;19.45;55.39;102244.41;4716912;30;20086;-71
2022/07/16 09:14:04;;;;;;;4.80;1.30;;;;;;;19.48;55.11;102238.41;4717397;30;20029;-70
2022/07/16 09:16:39;;;;;;;4.50;1.40;;;;;;;19.56;54.92;102237.97;4717625;30;20080;-72
2022/07/16 09:19:30;;;;;;;5.78;1.23;;;;;;;19.57;53.71;102241.56;4717180;30;20106;-73
2022/07/16 09:22:07;;;;;;;5.65;1.33;;;;;;;19.66;53.78;102242.81;4700381;30;20052;-73
2022/07/16 09:24:34;;;;;;;4.45;1.35;;;;;;;19.73;52.63;102239.88;4717421;30;20029;-71
2022/07/16 09:27:01;;;;;;;2.33;1.17;;;;;;;19.75;52.13;102244.03;4716454;30;20029;-71
2022/07/16 09:29:26;;;;;;;4.40;1.20;;;;;;;19.82;52.10;102238.38;4717326;30;20378;-70
2022/07/16 09:31:54;;;;;;;4.85;1.30;;;;;;;19.81;50.91;102247.72;4717126;30;20033;-70
2022/07/16 09:34:20;;;;;;;2.45;1.05;;;;;;;19.87;51.81;102252.19;4717283;30;20047;-70
2022/07/16 09:37:00;;;;;;;2.92;1.02;;;;;;;19.86;51.64;102250.53;4717219;30;20548;-73
2022/07/16 09:39:26;;;;;;;2.95;1.25;;;;;;;19.81;51.54;102255.97;4717238;30;20591;-73
2022/07/16 09:41:52;;;;;;;4.70;1.50;;;;;;;19.86;51.54;102245.03;4715476;30;20037;-70
2022/07/16 09:44:23;;;;;;;3.85;1.25;;;;;;;19.88;51.78;102251.09;4716182;30;20382;-73
2022/07/16 09:46:57;;;;;;;;;;;;;;;20.01;52.63;102250.72;4715623;30;20155;-71
2022/07/16 09:49:23;;;;;;;6.00;1.40;;;;;;;20.19;51.38;102254.25;4699434;30;20287;-71
2022/07/16 09:51:48;;;;;;;2.88;1.35;;;;;;;20.08;50.69;102256.03;4699327;30;20034;-70
2022/07/16 09:54:31;;;;;;;3.05;1.20;;;;;;;20.23;51.82;102266.41;4699681;30;20037;-71
2022/07/16 09:57:18;;;;;;;5.40;1.48;;;;;;;20.24;51.04;102262.56;4703940;30;20467;-71
2022/07/16 09:59:45;;;;;;;2.10;1.10;;;;;;;20.22;50.71;102262.00;4716862;30;20049;-70
2022/07/16 10:02:11;;;;;;;5.57;1.30;;;;;;;20.22;49.71;102270.22;4713387;30;20044;-72
2022/07/16 10:04:37;;;;;;;2.80;1.40;;;;;;;20.27;50.31;102267.53;4709646;30;20043;-73
2022/07/16 10:07:02;;;;;;;3.60;1.27;;;;;;;20.26;48.92;102270.53;4718555;30;20037;-69
2022/07/16 10:09:28;;;;;;;2.58;1.15;;;;;;;20.28;48.22;102265.63;4716853;30;20112;-69
2022/07/16 10:11:57;;;;;;;6.00;1.13;;;;;;;20.33;47.94;102266.50;4715048;30;20037;-73
2022/07/16 10:14:23;;;;;;;2.75;1.10;;;;;;;20.23;47.49;102274.66;4715379;30;20037;-71
2022/07/16 10:16:49;;;;;;;4.32;1.27;;;;;;;20.35;47.39;102280.84;4716656;30;20029;-71
2022/07/16 10:19:15;;;;;;;2.85;1.00;;;;;;;20.41;46.97;102283.66;4717785;30;20109;-70
2022/07/16 10:22:13;;;;;;;5.00;1.10;;;;;;;20.40;46.90;102282.81;4715414;30;20033;-71
2022/07/16 10:25:29;;;;;;;3.03;1.17;;;;;;;20.47;47.57;102290.88;4700089;30;20090;-68
2022/07/16 10:28:02;;;;;;;3.55;1.20;;;;;;;20.47;47.22;102288.97;4715082;30;20041;-74
2022/07/16 10:30:31;;;;;;;5.30;1.55;;;;;;;20.50;46.67;102287.59;4700827;30;20131;-74
2022/07/16 10:32:59;;;;;;;4.13;1.10;;;;;;;20.66;47.33;102288.66;4699543;30;20033;-71
2022/07/16 10:35:33;;;;;;;5.78;1.40;;;;;;;20.77;47.40;102297.84;4714206;30;20044;-72
2022/07/16 10:38:09;;;;;;;2.05;1.10;;;;;;;20.91;47.84;102287.25;4715105;30;20033;-73
2022/07/16 10:40:37;;;;;;;4.45;1.33;;;;;;;20.92;47.89;102292.50;4718862;30;20036;-71
2022/07/16 10:43:19;;;;;;;6.88;1.55;;;;;;;20.91;45.97;102299.09;4713350;30;20040;-69
2022/07/16 10:45:56;;;;;;;3.08;1.23;;;;;;;20.82;46.19;102298.72;4700673;30;20083;-71
2022/07/16 10:48:29;;;;;;;3.85;1.13;;;;;;;20.82;44.93;102301.47;4716532;30;20485;-69
2022/07/16 10:51:17;;;;;;;3.45;1.10;;;;;;;20.83;46.46;102303.13;4716371;30;20112;-68
2022/07/16 10:53:57;;;;;;;2.78;1.30;;;;;;;20.82;46.62;102311.63;4716695;30;20026;-70
2022/07/16 10:56:44;;;;;;;4.75;1.25;;;;;;;20.76;47.65;102301.66;4716595;30;20041;-69
2022/07/16 10:59:12;;;;;;;3.72;1.10;;;;;;;20.77;47.78;102303.34;4713569;30;20053;-68
2022/07/16 11:01:40;;;;;;;3.65;1.13;;;;;;;20.88;46.64;102305.13;4713293;30;20053;-69
2022/07/16 11:04:06;;;;;;;4.65;1.15;;;;;;;20.84;46.22;102317.72;4715031;30;20037;-71
2022/07/16 11:06:33;;;;;;;3.92;1.42;;;;;;;20.78;45.67;102296.75;4716432;30;20033;-69
2022/07/16 11:09:00;;;;;;;7.93;1.90;;;;;;;20.91;46.76;102304.59;4716755;30;20033;-68
2022/07/16 11:11:32;;;;;;;2.20;1.13;;;;;;;20.95;46.98;102313.97;4719583;30;20041;-71
2022/07/16 11:13:59;;;;;;;5.55;1.35;;;;;;;20.81;46.70;102304.50;4717162;30;20044;-70
2022/07/16 11:16:24;;;;;;;2.80;1.15;;;;;;;20.71;47.40;102306.03;4719237;30;20029;-70
2022/07/16 11:18:49;;;;;;;4.78;1.50;;;;;;;20.67;48.04;102310.41;4717738;30;20120;-70
2022/07/16 11:21:15;;;;;;;7.20;1.58;;;;;;;20.72;46.86;102309.63;4716646;30;20037;-70
2022/07/16 11:24:00;;;;;;;3.67;1.20;;;;;;;20.93;48.16;102316.19;4719061;30;20040;-67
2022/07/16 11:26:26;;;;;;;4.30;1.25;;;;;;;20.98;46.33;102302.44;4713708;30;20036;-70
2022/07/16 11:29:01;;;;;;;2.90;1.25;;;;;;;21.03;46.25;102309.94;4716715;30;20119;-72
2022/07/16 11:31:32;;;;;;;7.78;1.73;;;;;;;20.86;46.67;102312.78;4714862;30;20124;-71